Time;durP1;ratioP1;P1;durP2;ratioP2;P2;SDS_P1;SDS_P2;PMS_P1;PMS_P2;Temp;Humidity;BMP_temperature;BMP_pressure;BME280_temperature;BME280_humidity;BME280_pressure;Samples;Min_cycle;Max_cycle;Signal;HPM_P1;HPM_P2
2020/12/28 00:00:22;;;;;;;2.70;1.00;;;;;;;8.19;56.93;93386.78;5095507;28;20209;-69
2020/12/28 00:02:48;;;;;;;1.00;0.80;;;;;;;8.18;57.25;93380.75;5094253;28;20181;-68
2020/12/28 00:05:14;;;;;;;2.37;1.20;;;;;;;8.08;57.22;93370.91;5079843;28;20431;-69
2020/12/28 00:07:40;;;;;;;1.10;0.80;;;;;;;8.08;57.80;93373.50;5080663;28;20427;-69
2020/12/28 00:10:09;;;;;;;1.20;0.87;;;;;;;8.05;57.29;93381.81;5088634;28;20227;-70
2020/12/28 00:12:47;;;;;;;1.10;0.77;;;;;;;8.00;57.02;93379.09;5097008;28;20514;-71
2020/12/28 00:15:25;;;;;;;1.20;0.90;;;;;;;7.94;57.09;93375.59;5071193;28;20423;-69
2020/12/28 00:17:53;;;;;;;1.20;0.93;;;;;;;7.97;56.73;93380.34;5104497;28;20422;-69
2020/12/28 00:20:21;;;;;;;1.10;0.90;;;;;;;7.98;57.16;93375.91;5077287;28;20465;-69
2020/12/28 00:22:47;;;;;;;0.90;0.70;;;;;;;7.94;57.58;93367.78;5095861;28;20910;-69
2020/12/28 00:25:13;;;;;;;1.23;1.03;;;;;;;7.98;57.91;93366.28;5073982;28;20427;-70
2020/12/28 00:27:39;;;;;;;1.17;0.93;;;;;;;8.00;57.43;93369.44;5113173;28;20453;-69
2020/12/28 00:30:05;;;;;;;0.80;0.60;;;;;;;7.98;57.28;93360.28;5095755;28;20442;-70
2020/12/28 00:32:37;;;;;;;2.80;0.80;;;;;;;7.91;57.59;93360.41;5095736;28;20624;-71
2020/12/28 00:35:05;;;;;;;3.23;0.90;;;;;;;7.95;57.92;93364.13;5085807;28;20431;-71
2020/12/28 00:37:31;;;;;;;1.73;0.93;;;;;;;7.84;58.08;93357.13;5093903;28;20430;-70
2020/12/28 00:39:56;;;;;;;1.73;0.80;;;;;;;7.66;58.19;93352.84;5095069;28;20455;-70
2020/12/28 00:42:23;;;;;;;1.10;0.90;;;;;;;7.61;59.07;93360.56;5094933;28;20189;-70
2020/12/28 00:44:48;;;;;;;0.90;0.70;;;;;;;7.71;59.17;93354.78;5094804;28;20189;-69
2020/12/28 00:47:14;;;;;;;1.20;0.90;;;;;;;7.67;59.55;93354.44;5094743;28;21021;-69
2020/12/28 00:49:40;;;;;;;1.37;0.80;;;;;;;7.61;59.53;93356.16;5093600;28;20246;-69
2020/12/28 00:52:06;;;;;;;1.00;0.90;;;;;;;7.33;60.77;93349.00;5094159;28;20185;-70
2020/12/28 00:54:33;;;;;;;1.93;1.07;;;;;;;7.45;60.63;93349.78;5071859;28;20628;-71
2020/12/28 00:56:59;;;;;;;1.37;0.80;;;;;;;7.23;61.47;93355.56;5076229;28;20477;-69
2020/12/28 00:59:25;;;;;;;1.10;1.00;;;;;;;7.39;61.13;93348.09;5094184;28;20454;-68
2020/12/28 01:01:55;;;;;;;2.13;1.20;;;;;;;7.22;61.75;93338.34;5093948;28;20530;-70
2020/12/28 01:04:23;;;;;;;1.30;0.80;;;;;;;7.30;61.54;93337.22;5077250;28;20181;-70
2020/12/28 01:06:54;;;;;;;1.00;0.80;;;;;;;7.28;62.01;93338.47;5077725;28;20423;-69
2020/12/28 01:09:20;;;;;;;1.00;0.83;;;;;;;7.05;62.26;93327.03;5077204;28;20414;-69
2020/12/28 01:11:46;;;;;;;1.23;1.03;;;;;;;7.36;61.42;93328.53;5093699;28;20446;-70
2020/12/28 01:14:12;;;;;;;1.20;1.00;;;;;;;7.48;61.11;93331.09;5111710;28;20238;-69
2020/12/28 01:16:38;;;;;;;1.23;1.10;;;;;;;7.31;61.59;93335.44;5089211;28;20251;-69
2020/12/28 01:19:04;;;;;;;1.23;1.13;;;;;;;7.20;61.46;93334.41;5076930;28;20430;-71
2020/12/28 01:21:30;;;;;;;1.87;1.23;;;;;;;7.52;60.59;93332.25;5094097;28;20443;-69
2020/12/28 01:23:57;;;;;;;1.30;1.10;;;;;;;7.33;61.26;93335.97;5088710;28;20428;-70
2020/12/28 01:26:23;;;;;;;1.40;1.27;;;;;;;7.51;60.85;93342.88;5077421;28;20483;-69
2020/12/28 01:28:49;;;;;;;0.97;0.87;;;;;;;7.52;60.93;93352.28;5111733;28;20429;-68
2020/12/28 01:31:15;;;;;;;1.30;0.97;;;;;;;7.56;60.83;93353.41;5093772;28;20443;-69
2020/12/28 01:33:41;;;;;;;1.10;1.00;;;;;;;7.32;61.37;93356.03;5076030;28;20449;-71
2020/12/28 01:36:07;;;;;;;1.37;1.27;;;;;;;7.45;60.82;93356.81;5075868;28;20480;-69
2020/12/28 01:38:33;;;;;;;1.20;1.00;;;;;;;7.35;61.53;93360.00;5111865;28;20185;-69
2020/12/28 01:40:59;;;;;;;1.83;1.33;;;;;;;7.54;61.04;93360.66;5076835;28;20455;-71
2020/12/28 01:43:26;;;;;;;1.37;1.13;;;;;;;7.46;60.95;93359.19;5077111;28;20275;-70
2020/12/28 01:45:52;;;;;;;2.07;1.10;;;;;;;7.49;61.15;93353.53;5093456;28;20429;-69
2020/12/28 01:48:18;;;;;;;1.07;0.97;;;;;;;7.51;61.22;93345.47;5094273;28;20422;-67
2020/12/28 01:50:44;;;;;;;3.10;1.00;;;;;;;7.22;62.42;93353.97;5111419;28;20197;-67
2020/12/28 01:53:10;;;;;;;1.20;1.07;;;;;;;7.09;62.77;93362.00;5076676;28;20526;-70
2020/12/28 01:55:35;;;;;;;1.20;1.10;;;;;;;7.49;61.78;93350.94;5090035;28;20208;-70
2020/12/28 01:58:01;;;;;;;1.30;1.20;;;;;;;7.38;62.15;93343.91;5095688;28;20189;-69
2020/12/28 02:00:27;;;;;;;2.00;1.13;;;;;;;7.19;62.73;93348.44;5077465;28;20466;-70
2020/12/28 02:02:53;;;;;;;1.10;1.00;;;;;;;7.30;63.13;93349.47;5116576;28;20651;-70
2020/12/28 02:05:19;;;;;;;1.30;1.17;;;;;;;7.51;62.24;93343.69;5098870;28;20260;-71
2020/12/28 02:07:45;;;;;;;1.20;1.10;;;;;;;7.28;63.42;93346.28;5097879;28;20218;-67
2020/12/28 02:10:11;;;;;;;1.30;1.20;;;;;;;7.30;63.43;93349.47;5088688;28;20683;-69
2020/12/28 02:12:37;;;;;;;1.13;1.03;;;;;;;7.12;63.91;93343.34;5081039;28;20458;-69
2020/12/28 02:15:04;;;;;;;1.93;1.20;;;;;;;6.98;65.15;93352.38;5097494;28;20185;-70
2020/12/28 02:17:30;;;;;;;1.13;1.00;;;;;;;7.17;64.27;93351.28;5080386;28;20479;-72
2020/12/28 02:19:56;;;;;;;1.50;1.30;;;;;;;7.02;65.11;93349.09;5115334;28;20903;-70
2020/12/28 02:22:21;;;;;;;1.30;1.20;;;;;;;6.93;65.76;93341.84;5115667;28;20193;-70
2020/12/28 02:24:47;;;;;;;1.40;1.30;;;;;;;6.99;65.75;93333.94;5067135;28;20189;-69
2020/12/28 02:27:13;;;;;;;1.70;1.30;;;;;;;7.20;65.38;93335.19;5078702;28;20648;-69
2020/12/28 02:29:38;;;;;;;1.60;1.50;;;;;;;7.07;65.81;93330.19;5096937;28;20181;-70
2020/12/28 02:32:04;;;;;;;1.63;1.53;;;;;;;7.01;66.38;93326.69;5113892;28;20523;-69
2020/12/28 02:34:30;;;;;;;1.60;1.50;;;;;;;6.92;66.15;93328.03;5115570;28;20231;-70
2020/12/28 02:36:55;;;;;;;1.57;1.47;;;;;;;6.70;66.76;93330.34;5103541;28;20196;-71
2020/12/28 02:39:21;;;;;;;1.47;1.37;;;;;;;6.95;66.44;93318.97;5108398;28;20201;-70
2020/12/28 02:41:47;;;;;;;2.80;1.13;;;;;;;6.99;66.67;93309.69;5115042;28;20227;-69
2020/12/28 02:44:13;;;;;;;1.60;1.50;;;;;;;6.80;67.14;93309.00;5092805;28;20185;-70
2020/12/28 02:46:38;;;;;;;1.73;1.50;;;;;;;6.98;66.61;93297.72;5113673;28;20651;-69
2020/12/28 02:49:04;;;;;;;1.33;1.23;;;;;;;6.97;66.87;93306.53;5112135;28;20658;-71
2020/12/28 02:51:30;;;;;;;1.40;1.20;;;;;;;6.95;66.38;93287.75;5114484;28;20227;-70
2020/12/28 02:53:55;;;;;;;1.87;1.30;;;;;;;7.20;66.16;93292.75;5108111;28;20248;-70
2020/12/28 02:56:21;;;;;;;1.30;1.20;;;;;;;7.01;66.42;93305.84;5114632;28;20189;-70
2020/12/28 02:58:47;;;;;;;1.33;1.23;;;;;;;7.12;65.97;93301.69;5112992;28;20192;-69
2020/12/28 03:01:12;;;;;;;1.53;1.43;;;;;;;7.13;66.20;93305.88;5114378;28;20288;-68
2020/12/28 03:03:38;;;;;;;1.33;1.23;;;;;;;6.86;66.68;93308.91;5113780;28;20208;-70
2020/12/28 03:06:04;;;;;;;1.90;1.40;;;;;;;6.90;67.22;93297.03;5094558;28;20237;-69
2020/12/28 03:08:29;;;;;;;1.93;1.37;;;;;;;7.18;66.09;93292.94;5113071;28;20184;-70
2020/12/28 03:10:55;;;;;;;3.20;1.30;;;;;;;6.96;66.47;93284.94;5112913;28;20208;-69
2020/12/28 03:13:21;;;;;;;1.57;1.20;;;;;;;6.91;66.73;93288.22;5113391;28;20185;-70
2020/12/28 03:15:46;;;;;;;1.53;1.20;;;;;;;7.04;66.65;93281.19;5106527;28;20181;-70
2020/12/28 03:18:12;;;;;;;1.60;1.50;;;;;;;6.87;66.77;93294.06;5114583;28;20628;-69
2020/12/28 03:20:38;;;;;;;1.50;1.40;;;;;;;6.89;66.89;93287.63;5112812;28;20233;-69
2020/12/28 03:23:04;;;;;;;1.57;1.30;;;;;;;6.96;66.86;93290.13;5095106;28;20192;-71
2020/12/28 03:25:29;;;;;;;2.40;1.50;;;;;;;7.00;66.97;93280.84;5107634;28;20185;-70
2020/12/28 03:27:55;;;;;;;1.43;1.33;;;;;;;6.93;67.01;93284.59;5111129;28;20214;-70
2020/12/28 03:30:21;;;;;;;1.40;1.30;;;;;;;7.15;66.29;93285.63;5114417;28;20204;-70
2020/12/28 03:32:47;;;;;;;1.53;1.40;;;;;;;6.99;67.03;93305.31;5114067;28;20184;-68
2020/12/28 03:35:12;;;;;;;4.00;1.60;;;;;;;7.00;67.27;93287.88;5112494;28;20209;-69
2020/12/28 03:37:38;;;;;;;1.33;1.23;;;;;;;7.16;66.73;93296.81;5113754;28;20185;-71
2020/12/28 03:40:04;;;;;;;1.30;1.20;;;;;;;7.26;66.41;93291.03;5112851;28;20224;-69
2020/12/28 03:42:30;;;;;;;1.53;1.37;;;;;;;7.05;67.01;93295.81;5105975;28;20544;-69
2020/12/28 03:44:55;;;;;;;2.20;1.20;;;;;;;7.19;67.03;93280.75;5111615;28;20185;-70
2020/12/28 03:47:21;;;;;;;1.30;1.20;;;;;;;7.19;66.42;93291.94;5113413;28;20193;-70
2020/12/28 03:49:47;;;;;;;1.30;1.20;;;;;;;7.27;66.54;93261.38;5112036;28;20196;-70
2020/12/28 03:52:13;;;;;;;1.30;1.20;;;;;;;7.18;66.31;93263.53;5112391;28;20609;-70
2020/12/28 03:54:39;;;;;;;1.30;1.20;;;;;;;7.14;66.52;93262.38;5108240;28;20185;-69
2020/12/28 03:57:05;;;;;;;1.27;1.17;;;;;;;7.20;66.90;93245.88;5111515;28;20423;-69
2020/12/28 03:59:31;;;;;;;1.30;1.20;;;;;;;7.03;66.75;93245.78;5111398;28;20465;-70
2020/12/28 04:01:57;;;;;;;1.30;1.10;;;;;;;7.00;66.50;93254.81;5094423;28;20454;-70
2020/12/28 04:04:22;;;;;;;1.20;1.10;;;;;;;7.05;66.75;93254.94;5113519;28;20185;-70
2020/12/28 04:06:48;;;;;;;1.20;1.00;;;;;;;7.07;66.85;93247.69;5095003;28;20242;-69
2020/12/28 04:09:14;;;;;;;1.10;1.00;;;;;;;7.13;66.54;93248.59;5112200;28;20653;-70
2020/12/28 04:11:39;;;;;;;1.30;1.20;;;;;;;7.21;66.38;93245.63;5114939;28;20688;-68
2020/12/28 04:14:05;;;;;;;1.20;1.10;;;;;;;6.98;67.50;93243.03;5113437;28;20185;-70
2020/12/28 04:16:31;;;;;;;2.47;1.00;;;;;;;6.93;67.73;93245.56;5105628;28;20189;-69
2020/12/28 04:18:56;;;;;;;1.60;1.13;;;;;;;6.94;67.44;93241.91;5109576;28;20181;-70
2020/12/28 04:21:22;;;;;;;1.30;1.20;;;;;;;7.04;67.08;93247.38;5094783;28;20223;-71
2020/12/28 04:23:48;;;;;;;1.33;1.10;;;;;;;7.06;67.05;93246.09;5106699;28;20190;-67
2020/12/28 04:26:14;;;;;;;0.90;0.80;;;;;;;6.78;67.54;93238.97;5113122;28;20263;-69
2020/12/28 04:28:39;;;;;;;2.70;1.00;;;;;;;6.77;67.51;93247.81;5113329;28;20181;-69
2020/12/28 04:31:09;;;;;;;1.03;0.93;;;;;;;6.84;66.65;93240.66;5112408;28;20213;-69
2020/12/28 04:33:36;;;;;;;1.50;1.10;;;;;;;6.79;66.50;93244.97;5111932;28;20193;-70
2020/12/28 04:36:02;;;;;;;0.90;0.80;;;;;;;6.86;66.63;93249.03;5075467;28;20436;-69
2020/12/28 04:38:28;;;;;;;1.00;0.90;;;;;;;6.99;65.97;93255.03;5097093;28;20448;-70
2020/12/28 04:40:53;;;;;;;2.17;0.97;;;;;;;6.66;66.81;93251.19;5109700;28;20672;-69
2020/12/28 04:43:19;;;;;;;1.00;0.80;;;;;;;6.80;66.09;93244.75;5105991;28;20228;-69
2020/12/28 04:45:58;;;;;;;1.00;0.80;;;;;;;6.70;66.31;93244.50;5083858;27;20985;-70
2020/12/28 04:48:24;;;;;;;1.00;0.70;;;;;;;6.60;66.38;93248.47;5071508;28;20806;-69
2020/12/28 04:50:50;;;;;;;1.00;0.77;;;;;;;6.84;65.86;93238.06;5071940;28;20456;-69
2020/12/28 04:53:16;;;;;;;1.30;0.77;;;;;;;6.89;65.61;93238.19;5072763;28;20435;-69
2020/12/28 04:55:42;;;;;;;2.13;0.90;;;;;;;6.89;66.17;93230.38;5067153;28;20228;-69
2020/12/28 04:58:08;;;;;;;1.23;1.13;;;;;;;6.65;66.43;93226.97;5068299;28;20424;-70
2020/12/28 05:00:33;;;;;;;1.13;1.03;;;;;;;6.71;66.15;93227.88;5068536;28;20297;-70
2020/12/28 05:02:59;;;;;;;1.17;1.07;;;;;;;6.84;65.76;93229.47;5058669;28;20181;-70
2020/12/28 05:05:25;;;;;;;1.10;0.90;;;;;;;6.82;65.80;93226.31;5075326;28;20205;-70
2020/12/28 05:07:51;;;;;;;2.00;0.90;;;;;;;6.80;66.16;93218.75;5031123;28;20248;-70
2020/12/28 05:10:24;;;;;;;1.33;0.90;;;;;;;6.93;65.69;93224.72;5032567;28;20201;-69
2020/12/28 05:12:50;;;;;;;2.20;1.00;;;;;;;6.90;65.60;93207.75;5066976;28;20467;-69
2020/12/28 05:15:15;;;;;;;1.00;0.87;;;;;;;6.87;65.91;93206.38;5062586;28;20464;-68
2020/12/28 05:17:41;;;;;;;2.37;1.13;;;;;;;6.80;66.43;93210.13;5067763;28;20464;-70
2020/12/28 05:20:07;;;;;;;1.30;0.80;;;;;;;6.59;66.80;93213.06;5067661;28;20249;-71
2020/12/28 05:22:33;;;;;;;1.63;0.80;;;;;;;6.74;66.49;93210.00;5066619;28;20210;-70
2020/12/28 05:24:59;;;;;;;0.90;0.73;;;;;;;6.90;66.09;93200.75;5067586;28;20202;-71
2020/12/28 05:27:24;;;;;;;0.97;0.83;;;;;;;6.84;66.65;93204.22;5070961;28;20190;-70
2020/12/28 05:29:51;;;;;;;2.80;1.00;;;;;;;6.58;66.63;93197.69;5067189;28;20936;-68
2020/12/28 05:32:17;;;;;;;1.20;1.00;;;;;;;6.56;67.15;93202.31;5066629;28;20221;-70
2020/12/28 05:34:44;;;;;;;1.03;0.80;;;;;;;6.55;67.33;93204.09;5067858;28;20543;-68
2020/12/28 05:37:12;;;;;;;2.00;1.30;;;;;;;6.62;67.48;93214.41;5075782;28;20425;-71
2020/12/28 05:39:40;;;;;;;1.43;0.97;;;;;;;6.83;67.01;93215.66;5075755;28;20417;-70
2020/12/28 05:44:39;;;;;;;5.33;1.10;;;;;;;6.83;66.88;93205.25;5061393;28;20461;-70
2020/12/28 05:47:06;;;;;;;1.10;1.00;;;;;;;6.75;67.21;93211.59;5065196;28;20503;-69
2020/12/28 05:49:35;;;;;;;1.20;1.03;;;;;;;6.47;68.86;93217.44;5066254;28;20421;-69
2020/12/28 05:52:01;;;;;;;1.60;1.13;;;;;;;6.68;67.84;93212.75;5065815;28;20439;-69
2020/12/28 05:54:28;;;;;;;2.27;1.10;;;;;;;6.66;67.92;93210.34;5067535;28;20516;-71
2020/12/28 05:56:57;;;;;;;2.33;1.03;;;;;;;6.40;68.68;93214.94;5055661;28;20490;-69
2020/12/28 05:59:23;;;;;;;3.43;1.10;;;;;;;6.36;69.03;93213.03;5054067;28;20461;-70
2020/12/28 06:01:50;;;;;;;1.00;0.80;;;;;;;6.50;68.86;93213.59;5053944;28;20456;-69
2020/12/28 06:04:17;;;;;;;1.27;0.90;;;;;;;6.51;68.41;93218.59;5052861;28;20498;-70
2020/12/28 06:06:44;;;;;;;1.30;0.80;;;;;;;6.48;68.72;93213.84;5054391;28;20437;-69
2020/12/28 06:09:10;;;;;;;1.63;0.80;;;;;;;6.51;68.50;93215.19;5043464;28;20421;-70
2020/12/28 06:11:37;;;;;;;1.07;0.97;;;;;;;6.36;69.23;93219.03;5052715;28;20445;-70
2020/12/28 06:14:17;;;;;;;3.13;0.93;;;;;;;6.22;69.55;93217.66;5053853;28;20416;-70
2020/12/28 06:16:44;;;;;;;1.10;1.00;;;;;;;6.43;69.07;93216.31;5049265;28;20592;-70
2020/12/28 06:19:24;;;;;;;1.00;0.80;;;;;;;6.42;68.78;93225.16;5045466;28;20514;-70
2020/12/28 06:21:51;;;;;;;1.40;1.00;;;;;;;6.55;68.67;93219.72;5052576;28;20814;-69
2020/12/28 06:24:32;;;;;;;1.27;1.10;;;;;;;6.26;69.53;93224.78;5053579;28;20537;-69
2020/12/28 06:27:09;;;;;;;1.77;0.90;;;;;;;6.44;69.23;93223.91;5055384;28;20424;-69
2020/12/28 06:29:36;;;;;;;0.90;0.77;;;;;;;6.38;69.52;93229.19;5053776;28;20939;-70
2020/12/28 06:32:13;;;;;;;1.20;1.00;;;;;;;6.52;69.03;93230.59;5053407;28;20936;-70
2020/12/28 06:34:39;;;;;;;1.00;0.90;;;;;;;6.53;68.95;93229.56;5052279;28;20939;-70
2020/12/28 06:37:05;;;;;;;3.57;1.00;;;;;;;6.47;69.09;93237.47;5053724;28;20433;-70
2020/12/28 06:39:31;;;;;;;0.97;0.80;;;;;;;6.41;69.68;93229.53;5055135;28;20448;-69
2020/12/28 06:42:13;;;;;;;1.10;0.80;;;;;;;6.48;69.71;93224.25;5058040;28;20429;-70
2020/12/28 06:44:40;;;;;;;1.10;0.90;;;;;;;6.43;69.43;93229.31;5049049;28;20625;-69
2020/12/28 06:47:21;;;;;;;1.57;0.93;;;;;;;6.40;69.08;93221.97;5055047;28;20803;-71
2020/12/28 06:49:48;;;;;;;1.50;0.90;;;;;;;6.29;69.34;93220.94;5058428;28;20823;-70
2020/12/28 06:52:14;;;;;;;2.17;1.40;;;;;;;6.36;69.17;93218.22;5043355;28;20433;-69
2020/12/28 06:54:40;;;;;;;1.33;1.00;;;;;;;6.29;69.23;93219.13;5042553;28;20465;-70
2020/12/28 06:57:07;;;;;;;2.70;1.00;;;;;;;6.22;69.20;93217.66;5072925;28;20430;-71
2020/12/28 06:59:34;;;;;;;0.97;0.87;;;;;;;6.18;69.37;93222.47;5072863;28;20437;-72
2020/12/28 07:02:02;;;;;;;1.00;0.80;;;;;;;6.18;69.38;93222.47;5073459;28;20927;-69
2020/12/28 07:04:33;;;;;;;4.93;1.10;;;;;;;6.07;70.07;93220.63;5073280;28;20452;-72
2020/12/28 07:07:02;;;;;;;2.10;1.00;;;;;;;6.18;69.22;93219.09;5063766;28;20461;-73
2020/12/28 07:09:28;;;;;;;1.00;0.80;;;;;;;6.22;69.67;93221.03;5049880;28;20418;-72
2020/12/28 07:11:54;;;;;;;1.20;1.10;;;;;;;6.19;69.65;93216.25;5070206;28;20484;-73
2020/12/28 07:14:21;;;;;;;1.87;1.17;;;;;;;6.10;70.00;93225.41;5072545;28;20417;-71
2020/12/28 07:16:56;;;;;;;1.50;0.90;;;;;;;6.17;69.71;93218.31;5063717;28;20456;-69
2020/12/28 07:19:22;;;;;;;2.70;1.10;;;;;;;6.15;69.30;93221.13;5071378;28;20432;-71
2020/12/28 07:21:48;;;;;;;1.10;0.80;;;;;;;6.24;69.36;93229.41;5071822;28;20455;-70
2020/12/28 07:24:14;;;;;;;1.30;0.90;;;;;;;5.97;69.94;93219.34;5064682;28;20987;-69
2020/12/28 07:26:42;;;;;;;4.63;1.20;;;;;;;6.03;70.21;93212.50;5059904;28;20285;-71
2020/12/28 07:29:12;;;;;;;1.93;0.80;;;;;;;6.14;69.56;93213.56;5071482;28;20178;-71
2020/12/28 07:31:38;;;;;;;1.63;1.17;;;;;;;6.09;69.54;93210.81;5071629;28;20538;-71
2020/12/28 07:34:04;;;;;;;4.10;1.00;;;;;;;6.07;69.71;93210.25;5071949;28;20428;-71
2020/12/28 07:36:30;;;;;;;2.20;1.23;;;;;;;6.14;69.20;93213.56;5072565;28;20174;-71
2020/12/28 07:38:56;;;;;;;1.20;1.00;;;;;;;6.10;69.90;93223.59;5071966;28;20429;-71
2020/12/28 07:41:23;;;;;;;1.20;0.80;;;;;;;6.16;69.79;93203.72;5070630;28;20888;-71
2020/12/28 07:43:56;;;;;;;3.60;0.93;;;;;;;6.15;69.42;93212.53;5070926;28;20210;-70
2020/12/28 07:46:30;;;;;;;4.10;1.00;;;;;;;6.08;69.66;93207.44;5071745;28;20546;-72
2020/12/28 07:49:02;;;;;;;1.10;1.00;;;;;;;6.09;69.56;93200.41;5063543;28;20431;-71
2020/12/28 07:51:28;;;;;;;1.30;0.80;;;;;;;6.10;69.85;93196.81;5053677;28;20491;-71
2020/12/28 07:54:03;;;;;;;1.83;0.90;;;;;;;6.16;69.58;93195.94;5066994;28;20456;-70
2020/12/28 07:56:33;;;;;;;1.63;1.23;;;;;;;6.02;69.95;93197.13;5059595;28;20178;-71
2020/12/28 07:59:19;;;;;;;1.20;0.97;;;;;;;5.87;69.96;93193.09;5070134;28;20478;-72
2020/12/28 08:01:48;;;;;;;1.30;0.90;;;;;;;6.10;69.59;93192.41;5070545;28;20884;-71
2020/12/28 08:04:20;;;;;;;1.27;1.17;;;;;;;5.98;71.02;93189.75;5069539;28;20601;-71
2020/12/28 08:06:46;;;;;;;1.73;1.10;;;;;;;6.04;70.26;93188.09;5070811;28;20456;-69
2020/12/28 08:09:12;;;;;;;1.47;1.00;;;;;;;5.95;70.55;93190.19;5064086;28;20482;-70
2020/12/28 08:11:37;;;;;;;1.63;1.17;;;;;;;6.08;70.18;93180.63;5071373;28;20452;-71
2020/12/28 08:14:09;;;;;;;2.60;1.30;;;;;;;6.09;70.07;93184.81;5072112;28;20190;-71
2020/12/28 08:16:35;;;;;;;1.10;1.00;;;;;;;6.15;69.49;93181.34;5063237;28;20178;-71
2020/12/28 08:19:01;;;;;;;1.50;1.23;;;;;;;6.13;69.99;93184.16;5073763;28;20910;-70
2020/12/28 08:21:43;;;;;;;2.67;1.60;;;;;;;5.93;70.48;93183.63;5064949;28;20441;-71
2020/12/28 08:24:17;;;;;;;4.30;1.40;;;;;;;5.97;70.47;93182.19;5049731;28;20191;-70
2020/12/28 08:26:44;;;;;;;2.80;1.17;;;;;;;5.81;70.98;93183.59;5043093;28;20440;-71
2020/12/28 08:29:10;;;;;;;2.13;1.30;;;;;;;5.94;70.29;93186.00;5054365;28;20838;-70
2020/12/28 08:31:36;;;;;;;1.30;1.17;;;;;;;5.95;70.15;93187.59;5070574;28;20977;-70
2020/12/28 08:34:07;;;;;;;1.77;1.30;;;;;;;5.93;69.89;93188.81;5070154;28;20432;-70
2020/12/28 08:36:36;;;;;;;3.70;1.17;;;;;;;5.78;70.77;93186.63;5071201;28;20830;-71
2020/12/28 08:39:15;;;;;;;2.40;1.53;;;;;;;5.75;71.08;93192.28;5069676;28;20486;-70
2020/12/28 08:41:57;;;;;;;2.60;1.87;;;;;;;5.88;70.60;93184.28;5061440;28;20440;-71
2020/12/28 08:44:29;;;;;;;1.70;1.43;;;;;;;5.45;72.60;93177.47;5056488;28;20511;-71
2020/12/28 08:46:56;;;;;;;1.20;1.00;;;;;;;5.10;73.69;93178.06;5071030;28;20432;-71
2020/12/28 08:49:29;;;;;;;3.40;1.07;;;;;;;5.33;73.11;93170.41;5052742;28;20447;-71
2020/12/28 08:51:55;;;;;;;1.00;0.80;;;;;;;5.20;73.45;93176.56;5071072;28;20448;-70
2020/12/28 08:54:28;;;;;;;0.90;0.80;;;;;;;5.48;73.12;93174.44;5051569;28;20433;-71
2020/12/28 08:56:54;;;;;;;1.77;1.40;;;;;;;5.42;72.90;93170.91;5065843;28;20197;-71
2020/12/28 08:59:20;;;;;;;1.87;1.07;;;;;;;5.22;74.07;93181.53;5070907;28;20484;-71
2020/12/28 09:01:51;;;;;;;1.60;1.03;;;;;;;5.49;72.81;93176.78;5068475;28;20472;-70
2020/12/28 09:04:17;;;;;;;1.53;0.97;;;;;;;5.86;72.38;93181.13;5062285;28;20209;-70
2020/12/28 09:06:43;;;;;;;1.60;0.90;;;;;;;6.38;70.67;93183.16;5071125;28;20880;-70
2020/12/28 09:09:08;;;;;;;2.07;1.20;;;;;;;6.52;69.56;93201.97;5069053;28;20308;-72
2020/12/28 09:11:34;;;;;;;1.93;1.07;;;;;;;6.41;70.45;93210.56;5070966;28;20697;-71
2020/12/28 09:14:00;;;;;;;1.30;1.10;;;;;;;6.40;70.48;93206.38;5070716;28;20230;-70
2020/12/28 09:16:26;;;;;;;1.33;1.10;;;;;;;6.36;70.55;93211.22;5064136;28;20657;-70
2020/12/28 09:18:51;;;;;;;1.60;1.50;;;;;;;6.37;70.66;93212.78;5070861;28;20265;-69
2020/12/28 09:21:17;;;;;;;1.57;1.20;;;;;;;6.48;70.03;93207.84;5070424;28;20210;-71
2020/12/28 09:23:43;;;;;;;2.40;1.90;;;;;;;6.19;71.08;93211.06;5069628;28;20657;-71
2020/12/28 09:26:08;;;;;;;1.40;1.30;;;;;;;6.33;70.83;93216.88;5060804;28;20275;-68
2020/12/28 09:28:34;;;;;;;2.07;1.43;;;;;;;6.54;70.65;93218.16;5060635;28;20649;-69
2020/12/28 09:31:00;;;;;;;3.73;1.43;;;;;;;6.73;70.01;93211.03;5069190;28;20312;-72
2020/12/28 09:33:25;;;;;;;2.87;1.57;;;;;;;6.56;70.08;93203.09;5074931;28;20202;-71
2020/12/28 09:35:51;;;;;;;2.43;1.03;;;;;;;6.42;70.15;93197.31;5074605;28;20653;-71
2020/12/28 09:38:17;;;;;;;2.63;1.80;;;;;;;6.37;70.70;93196.41;5073176;28;20220;-71
2020/12/28 09:40:42;;;;;;;1.90;1.30;;;;;;;6.56;70.23;93194.50;5073486;28;20217;-71
2020/12/28 09:43:08;;;;;;;5.10;1.77;;;;;;;6.42;70.34;93178.34;5074189;28;20653;-70
2020/12/28 09:45:36;;;;;;;2.20;1.60;;;;;;;6.56;70.42;93179.69;5073700;28;20554;-70
2020/12/28 09:48:03;;;;;;;1.93;1.03;;;;;;;6.44;70.33;93186.69;5072499;28;20190;-71
2020/12/28 09:50:29;;;;;;;1.70;1.30;;;;;;;6.63;70.03;93181.38;5068216;28;20594;-71
2020/12/28 09:52:55;;;;;;;2.53;1.43;;;;;;;6.78;69.53;93173.94;5073589;28;20432;-71
2020/12/28 09:55:20;;;;;;;5.20;1.40;;;;;;;6.64;69.90;93173.34;5061241;28;20202;-71
2020/12/28 09:57:47;;;;;;;1.83;1.53;;;;;;;6.86;69.54;93180.59;5074019;28;20649;-69
2020/12/28 10:00:17;;;;;;;3.30;1.30;;;;;;;6.71;69.63;93181.03;5074678;28;20198;-70
2020/12/28 10:02:43;;;;;;;2.03;1.80;;;;;;;6.84;69.71;93177.44;5066144;28;20515;-70
2020/12/28 10:05:09;;;;;;;2.43;1.80;;;;;;;6.74;69.61;93191.78;5064702;28;20516;-70
2020/12/28 10:07:37;;;;;;;3.00;2.00;;;;;;;6.79;69.68;93188.53;5073743;28;20526;-71
2020/12/28 10:10:07;;;;;;;2.20;2.00;;;;;;;6.73;70.54;93189.41;5072762;28;20505;-71
2020/12/28 10:12:33;;;;;;;4.37;3.27;;;;;;;6.74;69.90;93185.81;5072459;28;20439;-70
2020/12/28 10:14:59;;;;;;;22.17;8.20;;;;;;;6.61;70.13;93186.84;5071375;28;20522;-70
2020/12/28 10:17:25;;;;;;;2.70;2.50;;;;;;;6.39;70.10;93178.78;5067802;28;20457;-73
2020/12/28 10:19:50;;;;;;;3.80;2.60;;;;;;;6.65;69.50;93174.16;5072155;28;20189;-70
2020/12/28 10:22:16;;;;;;;5.33;3.50;;;;;;;6.41;69.20;93174.16;5064849;28;20186;-69
2020/12/28 10:24:42;;;;;;;3.60;3.30;;;;;;;6.52;69.28;93172.56;5057224;28;20210;-71
2020/12/28 10:27:07;;;;;;;4.07;3.30;;;;;;;6.67;68.72;93179.94;5068523;28;20186;-71
2020/12/28 10:29:33;;;;;;;20.80;9.77;;;;;;;6.54;69.19;93166.13;5073401;28;20182;-71
2020/12/28 10:31:59;;;;;;;4.83;3.73;;;;;;;6.73;68.32;93174.63;5073521;28;20210;-69
2020/12/28 10:34:25;;;;;;;4.40;3.80;;;;;;;6.55;68.34;93172.91;5054672;28;20840;-70
2020/12/28 10:36:51;;;;;;;7.23;3.80;;;;;;;6.91;67.75;93160.69;5073374;28;20273;-71
2020/12/28 10:39:17;;;;;;;4.03;3.57;;;;;;;6.75;67.87;93163.97;5071476;28;20433;-71
2020/12/28 10:41:43;;;;;;;4.90;3.67;;;;;;;6.81;67.38;93159.66;5072847;28;20449;-72
2020/12/28 10:44:09;;;;;;;5.13;3.93;;;;;;;7.04;66.85;93148.44;5072391;28;20195;-72
2020/12/28 10:46:36;;;;;;;4.30;3.90;;;;;;;6.88;66.72;93161.13;5073382;28;20186;-71
2020/12/28 10:49:05;;;;;;;18.67;8.30;;;;;;;7.09;66.86;93151.13;5073064;28;20456;-70
2020/12/28 10:51:31;;;;;;;7.20;4.80;;;;;;;7.22;66.32;93156.09;5064135;28;20483;-70
2020/12/28 10:53:57;;;;;;;7.87;4.67;;;;;;;7.21;66.01;93149.28;5069151;28;20528;-72
2020/12/28 10:56:27;;;;;;;7.17;4.80;;;;;;;6.91;66.77;93155.47;5061041;28;20428;-72
2020/12/28 10:58:53;;;;;;;3.27;2.97;;;;;;;7.06;66.41;93155.00;5073025;28;20197;-72
2020/12/28 11:01:23;;;;;;;4.70;3.43;;;;;;;7.11;66.25;93156.13;5073448;28;20456;-70
2020/12/28 11:03:51;;;;;;;3.70;3.40;;;;;;;7.05;66.69;93147.44;5072014;28;21006;-72
2020/12/28 11:06:20;;;;;;;3.90;3.17;;;;;;;7.02;65.87;93146.06;5072086;28;20462;-70
2020/12/28 11:08:46;;;;;;;3.90;3.50;;;;;;;7.19;65.92;93148.72;5071556;28;20494;-70
2020/12/28 11:11:12;;;;;;;3.90;3.27;;;;;;;7.16;65.96;93141.41;5072920;28;20457;-71
2020/12/28 11:13:38;;;;;;;6.43;3.70;;;;;;;7.08;65.80;93136.53;5073037;28;20504;-72
2020/12/28 11:16:04;;;;;;;3.80;3.30;;;;;;;7.19;65.82;93145.34;5065531;28;20285;-71
2020/12/28 11:18:29;;;;;;;4.77;3.70;;;;;;;7.19;65.68;93137.53;5072865;28;20766;-71
2020/12/28 11:20:55;;;;;;;5.10;3.30;;;;;;;7.20;66.23;93120.91;5071122;28;20629;-71
2020/12/28 11:23:20;;;;;;;3.30;3.00;;;;;;;7.03;66.26;93118.22;5070891;28;20269;-71
2020/12/28 11:25:47;;;;;;;3.80;3.20;;;;;;;7.08;66.40;93113.09;5056498;28;20244;-71
2020/12/28 11:28:12;;;;;;;3.10;2.80;;;;;;;7.11;66.08;93102.25;5069042;28;20178;-72
2020/12/28 11:30:38;;;;;;;4.00;3.60;;;;;;;7.06;65.67;93089.91;5072714;28;20555;-71
2020/12/28 11:33:04;;;;;;;4.53;2.43;;;;;;;7.00;65.43;93083.03;5072628;28;20192;-70
2020/12/28 11:35:30;;;;;;;3.10;2.80;;;;;;;6.97;66.09;93082.69;5072795;28;20257;-70
2020/12/28 11:37:56;;;;;;;3.43;2.80;;;;;;;7.08;65.15;93074.06;5053753;28;20186;-70
2020/12/28 11:40:23;;;;;;;3.87;2.90;;;;;;;7.09;66.26;93070.44;5072519;28;20451;-70
2020/12/28 11:42:49;;;;;;;5.40;2.90;;;;;;;7.21;65.22;93065.97;5073214;28;20444;-71